Time;durP1;ratioP1;P1;durP2;ratioP2;P2;SDS_P1;SDS_P2;PMS_P1;PMS_P2;Temp;Humidity;BMP_temperature;BMP_pressure;BME280_temperature;BME280_humidity;BME280_pressure;Samples;Min_cycle;Max_cycle;Signal;HPM_P1;HPM_P2
2022/04/19 00:00:35;;;;;;;;;;;;;;;;;;5050544;28;965;-70
2022/04/19 00:03:02;;;;;;;;;;;;;;;;;;5050239;28;1894;-69
2022/04/19 00:05:28;;;;;;;;;;;;;;;;;;5050387;28;1551;-69
2022/04/19 00:07:56;;;;;;;;;;;;;;;;;;5050280;28;1584;-69
2022/04/19 00:10:22;;;;;;;;;;;;;;;;;;5050232;28;1645;-69
2022/04/19 00:12:48;;;;;;;;;;;;;;;;;;5050090;28;1623;-70
2022/04/19 00:15:15;;;;;;;;;;;;;;;;;;5050586;28;1618;-70
2022/04/19 00:17:41;;;;;;;;;;;;;;;;;;5049474;28;1622;-70
2022/04/19 00:20:08;;;;;;;;;;;;;;;;;;5032395;28;1504;-70
2022/04/19 00:22:34;;;;;;;;;;;;;;;;;;5050276;28;1389;-70
2022/04/19 00:25:02;;;;;;;;;;;;;;;;;;5050595;28;1975;-69
2022/04/19 00:27:28;;;;;;;;;;;;;;;;;;5049938;28;1574;-70
2022/04/19 00:29:55;;;;;;;;;;;;;;;;;;5032591;28;1278;-70
2022/04/19 00:32:21;;;;;;;;;;;;;;;;;;5032313;28;1330;-70
2022/04/19 00:34:47;;;;;;;;;;;;;;;;;;5049986;28;1614;-70
2022/04/19 00:37:14;;;;;;;;;;;;;;;;;;5049898;28;1634;-70
2022/04/19 00:39:40;;;;;;;;;;;;;;;;;;5050569;28;1083;-70
2022/04/19 00:42:08;;;;;;;;;;;;;;;;;;5033270;28;1376;-70
2022/04/19 00:44:37;;;;;;;;;;;;;;;;;;5036143;28;1993;-70
2022/04/19 00:47:05;;;;;;;;;;;;;;;;;;5053048;28;1602;-71
2022/04/19 00:49:33;;;;;;;;;;;;;;;;;;5035420;28;1653;-70
2022/04/19 00:52:00;;;;;;;;;;;;;;;;;;5035428;28;1704;-69
2022/04/19 00:54:27;;;;;;;;;;;;;;;;;;5053628;28;1646;-70
2022/04/19 00:56:53;;;;;;;;;;;;;;;;;;5053466;28;1610;-70
2022/04/19 00:59:21;;;;;;;;;;;;;;;;;;5035423;28;1575;-70
2022/04/19 01:01:47;;;;;;;;;;;;;;;;;;5035562;28;1793;-70
2022/04/19 01:04:14;;;;;;;;;;;;;;;;;;5035558;28;1906;-71
2022/04/19 01:06:40;;;;;;;;;;;;;;;;;;5034970;28;1770;-71
2022/04/19 01:09:06;;;;;;;;;;;;;;;;;;5053407;28;875;-71
2022/04/19 01:14:17;;;;;;;;;;;;;;;;;;5035657;28;1460;-71
2022/04/19 01:16:46;;;;;;;;;;;;;;;;;;5052495;28;1606;-67
2022/04/19 01:19:15;;;;;;;;;;;;;;;;;;5035342;28;1547;-70
2022/04/19 01:21:46;;;;;;;;;;;;;;;;;;5035555;28;1570;-70
2022/04/19 01:24:14;;;;;;;;;;;;;;;;;;5034770;28;1943;-69
2022/04/19 01:26:41;;;;;;;;;;;;;;;;;;5033734;28;1584;-69
2022/04/19 01:29:07;;;;;;;;;;;;;;;;;;5053075;28;814;-70
2022/04/19 01:31:33;;;;;;;;;;;;;;;;;;5035046;28;1637;-69
2022/04/19 01:34:01;;;;;;;;;;;;;;;;;;5035244;28;1602;-69
2022/04/19 01:36:27;;;;;;;;;;;;;;;;;;5034468;28;1602;-70
2022/04/19 01:38:55;;;;;;;;;;;;;;;;;;5035151;28;2107;-70
2022/04/19 01:41:22;;;;;;;;;;;;;;;;;;5034850;28;2261;-70
2022/04/19 01:43:51;;;;;;;;;;;;;;;;;;5034583;28;1914;-70
2022/04/19 01:46:18;;;;;;;;;;;;;;;;;;5051649;28;1586;-70
2022/04/19 01:48:45;;;;;;;;;;;;;;;;;;5034688;28;1697;-70
2022/04/19 01:51:14;;;;;;;;;;;;;;;;;;5035171;28;1653;-69
2022/04/19 01:53:40;;;;;;;;;;;;;;;;;;5033924;28;1657;-70
2022/04/19 01:56:09;;;;;;;;;;;;;;;;;;5034314;28;1626;-69
2022/04/19 01:58:55;;;;;;;;;;;;;;;;;;5036862;28;1499;-70
2022/04/19 02:01:34;;;;;;;;;;;;;;;;;;5031677;28;1591;-67
2022/04/19 02:04:00;;;;;;;;;;;;;;;;;;5035240;28;1911;-70
2022/04/19 02:06:30;;;;;;;;;;;;;;;;;;5034531;28;1606;-71
2022/04/19 02:08:56;;;;;;;;;;;;;;;;;;5052648;28;1119;-70
2022/04/19 02:11:25;;;;;;;;;;;;;;;;;;5034249;28;1183;-70
2022/04/19 02:14:04;;;;;;;;;;;;;;;;;;5034560;28;1587;-70
2022/04/19 02:16:37;;;;;;;;;;;;;;;;;;5033424;28;1579;-70
2022/04/19 02:19:03;;;;;;;;;;;;;;;;;;5051977;28;1712;-70
2022/04/19 02:21:30;;;;;;;;;;;;;;;;;;5051524;28;1590;-69
2022/04/19 02:23:56;;;;;;;;;;;;;;;;;;5033676;28;1977;-71
2022/04/19 02:26:24;;;;;;;;;;;;;;;;;;5051632;28;1645;-69
2022/04/19 02:28:52;;;;;;;;;;;;;;;;;;5034108;28;1392;-70
2022/04/19 02:31:27;;;;;;;;;;;;;;;;;;5033431;28;1594;-70
2022/04/19 02:33:58;;;;;;;;;;;;;;;;;;5034485;28;1606;-70
2022/04/19 02:36:24;;;;;;;;;;;;;;;;;;5033927;28;1662;-70
2022/04/19 02:38:51;;;;;;;;;;;;;;;;;;5051506;28;1630;-70
2022/04/19 02:41:18;;;;;;;;;;;;;;;;;;5033291;28;1650;-70
2022/04/19 02:43:48;;;;;;;;;;;;;;;;;;5033247;28;1914;-70
2022/04/19 02:46:16;;;;;;;;;;;;;;;;;;5033327;28;1594;-70
2022/04/19 02:48:48;;;;;;;;;;;;;;;;;;5033884;28;1594;-70
2022/04/19 02:51:15;;;;;;;;;;;;;;;;;;5033492;28;1586;-70
2022/04/19 02:53:42;;;;;;;;;;;;;;;;;;5033183;28;1669;-70
2022/04/19 02:56:08;;;;;;;;;;;;;;;;;;5033158;28;1566;-70
2022/04/19 02:58:35;;;;;;;;;;;;;;;;;;5033538;28;1648;-71
2022/04/19 03:01:02;;;;;;;;;;;;;;;;;;5033441;28;1563;-71
2022/04/19 03:03:30;;;;;;;;;;;;;;;;;;5033241;28;1486;-70
2022/04/19 03:05:58;;;;;;;;;;;;;;;;;;5032554;28;1922;-70
2022/04/19 03:08:26;;;;;;;;;;;;;;;;;;5033229;28;1288;-70
2022/04/19 03:10:52;;;;;;;;;;;;;;;;;;5033361;28;1681;-70
2022/04/19 03:13:19;;;;;;;;;;;;;;;;;;5033263;28;1428;-70
2022/04/19 03:15:45;;;;;;;;;;;;;;;;;;5032882;28;1598;-70
2022/04/19 03:18:12;;;;;;;;;;;;;;;;;;5032917;28;1634;-70
2022/04/19 03:20:41;;;;;;;;;;;;;;;;;;5032684;28;1559;-70
2022/04/19 03:28:50;;;;;;;;;;;;;;;;;;5033035;28;1661;-68
2022/04/19 03:31:17;;;;;;;;;;;;;;;;;;5032833;28;1582;-70
2022/04/19 03:33:44;;;;;;;;;;;;;;;;;;5032580;28;1669;-70
2022/04/19 03:36:12;;;;;;;;;;;;;;;;;;5032565;28;2245;-70
2022/04/19 03:38:38;;;;;;;;;;;;;;;;;;5050797;28;763;-70
2022/04/19 03:41:05;;;;;;;;;;;;;;;;;;5037211;28;2356;-70
2022/04/19 03:43:32;;;;;;;;;;;;;;;;;;5046521;28;1665;-70
2022/04/19 03:45:59;;;;;;;;;;;;;;;;;;5050364;28;1985;-70
2022/04/19 03:48:25;;;;;;;;;;;;;;;;;;5039626;28;1644;-70
2022/04/19 03:50:52;;;;;;;;;;;;;;;;;;5050079;28;1571;-70
2022/04/19 03:53:20;;;;;;;;;;;;;;;;;;5050235;28;1662;-70
2022/04/19 03:55:46;;;;;;;;;;;;;;;;;;5031703;28;1542;-69
2022/04/19 03:58:12;;;;;;;;;;;;;;;;;;5032684;28;1467;-69
2022/04/19 04:00:39;;;;;;;;;;;;;;;;;;5033016;28;1630;-70
2022/04/19 04:03:06;;;;;;;;;;;;;;;;;;5031894;28;1693;-70
2022/04/19 04:05:32;;;;;;;;;;;;;;;;;;5021848;28;1910;-70
2022/04/19 04:07:59;;;;;;;;;;;;;;;;;;5021648;28;1572;-70
2022/04/19 04:10:31;;;;;;;;;;;;;;;;;;5032353;28;1455;-70
2022/04/19 04:12:59;;;;;;;;;;;;;;;;;;5032746;28;1376;-69
2022/04/19 04:15:26;;;;;;;;;;;;;;;;;;5032297;28;1570;-70
2022/04/19 04:17:53;;;;;;;;;;;;;;;;;;5053059;28;1681;-70
2022/04/19 04:20:20;;;;;;;;;;;;;;;;;;5035946;28;2528;-70
2022/04/19 04:22:46;;;;;;;;;;;;;;;;;;5036109;28;1726;-70
2022/04/19 04:25:13;;;;;;;;;;;;;;;;;;5036131;28;1977;-70
2022/04/19 04:27:40;;;;;;;;;;;;;;;;;;5053779;28;1535;-70
2022/04/19 04:30:07;;;;;;;;;;;;;;;;;;5036349;28;1609;-70
2022/04/19 04:32:39;;;;;;;;;;;;;;;;;;5036190;28;1677;-70
2022/04/19 04:35:07;;;;;;;;;;;;;;;;;;5036650;28;1641;-70
2022/04/19 04:37:33;;;;;;;;;;;;;;;;;;5053215;28;1579;-70
2022/04/19 04:40:03;;;;;;;;;;;;;;;;;;5036164;28;1551;-70
2022/04/19 04:42:29;;;;;;;;;;;;;;;;;;5053363;28;1627;-69
2022/04/19 04:45:05;;;;;;;;;;;;;;;;;;5035887;28;1914;-69
2022/04/19 04:50:18;;;;;;;;;;;;;;;;;;5027192;28;1646;-70
2022/04/19 04:52:44;;;;;;;;;;;;;;;;;;5035981;28;2303;-70
2022/04/19 04:55:10;;;;;;;;;;;;;;;;;;5035795;28;1412;-70
2022/04/19 04:57:38;;;;;;;;;;;;;;;;;;5035556;28;1335;-70
2022/04/19 05:00:07;;;;;;;;;;;;;;;;;;5034770;28;1341;-70
2022/04/19 05:02:48;;;;;;;;;;;;;;;;;;5026028;28;1757;-69
2022/04/19 05:05:14;;;;;;;;;;;;;;;;;;5025634;28;1927;-70
2022/04/19 05:07:41;;;;;;;;;;;;;;;;;;5055341;28;1458;-70
2022/04/19 05:10:08;;;;;;;;;;;;;;;;;;5052489;28;1303;-70
2022/04/19 05:12:35;;;;;;;;;;;;;;;;;;5051960;28;1333;-70
2022/04/19 05:15:02;;;;;;;;;;;;;;;;;;5052079;28;1321;-70
2022/04/19 05:17:35;;;;;;;;;;;;;;;;;;5035216;28;1019;-70
2022/04/19 05:20:02;;;;;;;;;;;;;;;;;;5035279;28;1376;-70
2022/04/19 05:22:31;;;;;;;;;;;;;;;;;;5035150;28;1286;-70
2022/04/19 05:24:58;;;;;;;;;;;;;;;;;;5035430;28;1990;-70
2022/04/19 05:27:24;;;;;;;;;;;;;;;;;;5034370;28;1491;-70
2022/04/19 05:29:52;;;;;;;;;;;;;;;;;;5026881;28;1272;-70
2022/04/19 05:32:20;;;;;;;;;;;;;;;;;;5014519;28;2137;-70
2022/04/19 05:34:49;;;;;;;;;;;;;;;;;;5015182;28;1711;-71
2022/04/19 05:37:16;;;;;;;;;;;;;;;;;;5029212;28;1430;-70
2022/04/19 05:39:42;;;;;;;;;;;;;;;;;;5015410;28;913;-70
2022/04/19 05:42:08;;;;;;;;;;;;;;;;;;5015100;28;1439;-70
2022/04/19 05:44:37;;;;;;;;;;;;;;;;;;5014992;28;1973;-70
2022/04/19 05:47:04;;;;;;;;;;;;;;;;;;5014921;28;1434;-70
2022/04/19 05:49:30;;;;;;;;;;;;;;;;;;5032871;28;787;-70
2022/04/19 05:51:58;;;;;;;;;;;;;;;;;;5015063;28;1380;-70
2022/04/19 05:54:25;;;;;;;;;;;;;;;;;;5015204;28;913;-71
2022/04/19 05:56:56;;;;;;;;;;;;;;;;;;5032494;28;884;-71
2022/04/19 05:59:22;;;;;;;;;;;;;;;;;;5032668;28;845;-70
2022/04/19 06:04:56;;;;;;;;;;;;;;;;;;4991459;28;1987;-70
2022/04/19 06:07:27;;;;;;;;;;;;;;;;;;5014192;28;1192;-71
2022/04/19 06:09:53;;;;;;;;;;;;;;;;;;5014904;28;1327;-71
2022/04/19 06:12:20;;;;;;;;;;;;;;;;;;5016099;28;1464;-70
2022/04/19 06:14:51;;;;;;;;;;;;;;;;;;5014972;28;1471;-70
2022/04/19 06:17:22;;;;;;;;;;;;;;;;;;5014333;28;1345;-70
2022/04/19 06:19:48;;;;;;;;;;;;;;;;;;5014593;28;1035;-71
2022/04/19 06:22:15;;;;;;;;;;;;;;;;;;5014560;28;1537;-70
2022/04/19 06:24:54;;;;;;;;;;;;;;;;;;5014298;28;1914;-70
2022/04/19 06:27:20;;;;;;;;;;;;;;;;;;5013988;28;1420;-70
2022/04/19 06:29:47;;;;;;;;;;;;;;;;;;5014278;28;1425;-70
2022/04/19 06:32:13;;;;;;;;;;;;;;;;;;5014203;28;1523;-71
2022/04/19 06:34:43;;;;;;;;;;;;;;;;;;5014368;28;1343;-71
2022/04/19 06:37:13;;;;;;;;;;;;;;;;;;5014080;28;1325;-71
2022/04/19 06:39:44;;;;;;;;;;;;;;;;;;5032140;28;826;-70
2022/04/19 06:42:12;;;;;;;;;;;;;;;;;;5026125;28;1703;-71
2022/04/19 06:44:58;;;;;;;;;;;;;;;;;;5051597;28;1968;-71
2022/04/19 06:47:28;;;;;;;;;;;;;;;;;;5033509;28;1299;-70
2022/04/19 06:49:57;;;;;;;;;;;;;;;;;;5033743;28;1329;-70
2022/04/19 06:52:24;;;;;;;;;;;;;;;;;;5033596;28;1545;-71
2022/04/19 06:54:50;;;;;;;;;;;;;;;;;;5033877;28;1683;-71
2022/04/19 06:57:18;;;;;;;;;;;;;;;;;;5033484;28;1254;-71
2022/04/19 06:59:45;;;;;;;;;;;;;;;;;;5033700;28;1196;-70
2022/04/19 07:02:12;;;;;;;;;;;;;;;;;;5033299;28;1291;-70
2022/04/19 07:04:56;;;;;;;;;;;;;;;;;;5051660;28;1985;-71
2022/04/19 07:07:23;;;;;;;;;;;;;;;;;;5051181;28;1160;-70
2022/04/19 07:09:50;;;;;;;;;;;;;;;;;;5033575;28;1256;-70
2022/04/19 07:12:19;;;;;;;;;;;;;;;;;;5033178;28;1282;-70
2022/04/19 07:15:12;;;;;;;;;;;;;;;;;;5033460;28;1894;-70
2022/04/19 07:17:44;;;;;;;;;;;;;;;;;;5033208;28;1367;-70
2022/04/19 07:28:25;;;;;;;;;;;;;;;;;;5032756;28;1449;-70
2022/04/19 07:30:51;;;;;;;;;;;;;;;;;;5033149;28;1284;-70
2022/04/19 07:33:20;;;;;;;;;;;;;;;;;;5033066;28;1373;-70
2022/04/19 07:35:47;;;;;;;;;;;;;;;;;;5033230;28;1443;-71
2022/04/19 07:38:14;;;;;;;;;;;;;;;;;;5032585;28;1578;-70
2022/04/19 07:40:55;;;;;;;;;;;;;;;;;;5032850;28;1042;-71
2022/04/19 07:43:21;;;;;;;;;;;;;;;;;;5032717;28;1330;-70
2022/04/19 07:45:49;;;;;;;;;;;;;;;;;;5032975;28;1976;-70
2022/04/19 07:48:15;;;;;;;;;;;;;;;;;;5032984;28;1373;-70
2022/04/19 07:50:42;;;;;;;;;;;;;;;;;;5032534;28;1612;-71
2022/04/19 07:53:09;;;;;;;;;;;;;;;;;;5032724;28;1328;-71
2022/04/19 07:55:35;;;;;;;;;;;;;;;;;;5033098;28;1456;-70
2022/04/19 07:58:02;;;;;;;;;;;;;;;;;;5032227;28;1864;-70
2022/04/19 08:00:28;;;;;;;;;;;;;;;;;;5032670;28;1166;-70
2022/04/19 08:02:56;;;;;;;;;;;;;;;;;;5032806;28;1587;-71
2022/04/19 08:05:23;;;;;;;;;;;;;;;;;;5050459;28;1971;-70
2022/04/19 08:07:49;;;;;;;;;;;;;;;;;;5032413;28;1371;-71
2022/04/19 08:10:17;;;;;;;;;;;;;;;;;;5032905;28;1402;-71
2022/04/19 08:12:43;;;;;;;;;;;;;;;;;;5048147;28;1499;-70
2022/04/19 08:15:10;;;;;;;;;;;;;;;;;;5012587;28;1285;-70
2022/04/19 08:17:37;;;;;;;;;;;;;;;;;;5012556;28;1184;-70
2022/04/19 08:20:05;;;;;;;;;;;;;;;;;;5013203;28;1497;-70
2022/04/19 08:22:31;;;;;;;;;;;;;;;;;;5012722;28;1336;-71
2022/04/19 08:25:04;;;;;;;;;;;;;;;;;;5012740;28;1714;-70
2022/04/19 08:27:30;;;;;;;;;;;;;;;;;;5012162;28;1910;-71
2022/04/19 08:29:56;;;;;;;;;;;;;;;;;;5030836;28;1112;-70
2022/04/19 08:32:23;;;;;;;;;;;;;;;;;;5012436;28;1517;-71
2022/04/19 08:34:49;;;;;;;;;;;;;;;;;;5012795;28;1378;-71
2022/04/19 08:37:17;;;;;;;;;;;;;;;;;;5029994;28;767;-71
2022/04/19 08:39:43;;;;;;;;;;;;;;;;;;5030168;28;2111;-71
2022/04/19 08:42:09;;;;;;;;;;;;;;;;;;5025371;28;1653;-71
2022/04/19 08:44:36;;;;;;;;;;;;;;;;;;5032524;28;1353;-71
2022/04/19 08:47:04;;;;;;;;;;;;;;;;;;5049902;28;1918;-71
2022/04/19 08:49:31;;;;;;;;;;;;;;;;;;5049859;28;1080;-70
2022/04/19 08:51:57;;;;;;;;;;;;;;;;;;5049908;28;1067;-71
2022/04/19 08:59:53;;;;;;;;;;;;;;;;;;5032396;28;1018;-71
2022/04/19 09:02:21;;;;;;;;;;;;;;;;;;5032185;28;1486;-71
2022/04/19 09:04:47;;;;;;;;;;;;;;;;;;5053837;28;882;-71
2022/04/19 09:07:13;;;;;;;;;;;;;;;;;;5053417;28;1926;-71
2022/04/19 09:09:41;;;;;;;;;;;;;;;;;;5053535;28;945;-71
2022/04/19 09:12:08;;;;;;;;;;;;;;;;;;5053639;28;1259;-71
2022/04/19 09:14:35;;;;;;;;;;;;;;;;;;5053664;28;939;-71
2022/04/19 09:17:04;;;;;;;;;;;;;;;;;;5053398;28;892;-71
2022/04/19 09:19:30;;;;;;;;;;;;;;;;;;5053476;28;1135;-70
2022/04/19 09:21:57;;;;;;;;;;;;;;;;;;5035655;28;1349;-71
2022/04/19 09:24:23;;;;;;;;;;;;;;;;;;5053283;28;1370;-71
2022/04/19 09:26:51;;;;;;;;;;;;;;;;;;5052745;28;1924;-71
2022/04/19 09:29:18;;;;;;;;;;;;;;;;;;5053115;28;1079;-71
2022/04/19 09:31:44;;;;;;;;;;;;;;;;;;5053260;28;1242;-71
2022/04/19 09:34:11;;;;;;;;;;;;;;;;;;5035156;28;1403;-71
2022/04/19 09:36:37;;;;;;;;;;;;;;;;;;5053011;28;1056;-71
2022/04/19 09:39:03;;;;;;;;;;;;;;;;;;5053133;28;796;-71
2022/04/19 09:41:30;;;;;;;;;;;;;;;;;;5051806;28;1571;-71
2022/04/19 09:44:07;;;;;;;;;;;;;;;;;;5032862;28;1395;-70
2022/04/19 09:46:33;;;;;;;;;;;;;;;;;;5032844;28;1922;-71
2022/04/19 09:49:00;;;;;;;;;;;;;;;;;;5032959;28;688;-71
2022/04/19 09:51:31;;;;;;;;;;;;;;;;;;5084176;22;3588;-72
2022/04/19 09:53:57;;;;;;;;;;;;;;;;;;5092514;28;1160;-73
2022/04/19 09:56:23;;;;;;;;;;;;;;;;;;5091362;28;1172;-73
2022/04/19 09:58:50;;;;;;;;;;;;;;;;;;5091811;28;1959;-72
2022/04/19 10:09:26;;;;;;;;;;;;;;;;;;5085177;28;1749;-73
2022/04/19 10:11:52;;;;;;;;;;;;;;;;;;5092362;28;1378;-72
2022/04/19 10:14:19;;;;;;;;;;;;;;;;;;5091918;28;1111;-72
2022/04/19 10:16:48;;;;;;;;;;;;;;;;;;5089462;28;1741;-72
2022/04/19 10:19:15;;;;;;;;;;;;;;;;;;5091250;28;1769;-73
2022/04/19 10:21:41;;;;;;;;;;;;;;;;;;5091712;28;1987;-73
2022/04/19 10:24:09;;;;;;;;;;;;;;;;;;5091120;28;1355;-73
2022/04/19 10:26:35;;;;;;;;;;;;;;;;;;5092069;28;1914;-73
2022/04/19 10:29:02;;;;;;;;;;;;;;;;;;5092298;28;1282;-73
2022/04/19 10:31:30;;;;;;;;;;;;;;;;;;5092041;28;1625;-72
2022/04/19 10:34:01;;;;;;;;;;;;;;;;;;5090754;28;1201;-73
2022/04/19 10:36:35;;;;;;;;;;;;;;;;;;5091867;28;1055;-73
2022/04/19 10:39:21;;;;;;;;;;;;;;;;;;5091276;28;2059;-72
2022/04/19 10:41:48;;;;;;;;;;;;;;;;;;5091771;28;1399;-73
2022/04/19 10:44:21;;;;;;;;;;;;;;;;;;5090830;28;1705;-72
2022/04/19 10:46:47;;;;;;;;;;;;;;;;;;5091847;28;1981;-72
2022/04/19 10:49:24;;;;;;;;;;;;;;;;;;5091958;28;1115;-73
2022/04/19 10:51:52;;;;;;;;;;;;;;;;;;5091773;28;1389;-73
2022/04/19 10:54:24;;;;;;;;;;;;;;;;;;5091802;28;1130;-72
2022/04/19 10:57:09;;;;;;;;;;;;;;;;;;5092914;28;1130;-72
2022/04/19 10:59:36;;;;;;;;;;;;;;;;;;5094711;28;1082;-72
2022/04/19 11:02:06;;;;;;;;;;;;;;;;;;5092135;28;1300;-72
2022/04/19 11:04:38;;;;;;;;;;;;;;;;;;5091698;28;1064;-72
2022/04/19 11:07:06;;;;;;;;;;;;;;;;;;5091310;28;1914;-72
2022/04/19 11:09:32;;;;;;;;;;;;;;;;;;5091643;28;1075;-71
2022/04/19 11:12:08;;;;;;;;;;;;;;;;;;5091078;28;1309;-70
2022/04/19 11:14:40;;;;;;;;;;;;;;;;;;5091779;28;956;-72
2022/04/19 11:17:19;;;;;;;;;;;;;;;;;;5091380;28;1020;-71
2022/04/19 11:19:53;;;;;;;;;;;;;;;;;;5091143;28;1269;-71
2022/04/19 11:22:29;;;;;;;;;;;;;;;;;;5091031;28;1079;-72
2022/04/19 11:25:05;;;;;;;;;;;;;;;;;;5091200;28;759;-72
2022/04/19 11:27:50;;;;;;;;;;;;;;;;;;5090199;28;1963;-72
2022/04/19 11:30:16;;;;;;;;;;;;;;;;;;5090976;28;1357;-72
2022/04/19 11:32:43;;;;;;;;;;;;;;;;;;5091490;28;874;-71
2022/04/19 11:35:15;;;;;;;;;;;;;;;;;;5091166;28;649;-71
2022/04/19 11:37:42;;;;;;;;;;;;;;;;;;5091272;28;979;-71
2022/04/19 11:48:25;;;;;;;;;;;;;;;;;;5091104;28;1926;-72
2022/04/19 11:50:53;;;;;;;;;;;;;;;;;;5090964;28;1301;-72
2022/04/19 11:53:19;;;;;;;;;;;;;;;;;;5091061;28;1051;-73
2022/04/19 11:55:50;;;;;;;;;;;;;;;;;;5090699;28;1313;-71
2022/04/19 11:58:16;;;;;;;;;;;;;;;;;;5090766;28;881;-69
2022/04/19 12:00:43;;;;;;;;;;;;;;;;;;5090695;28;1261;-72
2022/04/19 12:03:23;;;;;;;;;;;;;;;;;;5089443;28;1352;-72
2022/04/19 12:05:49;;;;;;;;;;;;;;;;;;5090719;28;778;-71
2022/04/19 12:08:30;;;;;;;;;;;;;;;;;;5090375;28;1918;-72
2022/04/19 12:10:57;;;;;;;;;;;;;;;;;;5090695;28;1296;-72
2022/04/19 12:13:23;;;;;;;;;;;;;;;;;;5090909;28;1127;-72
2022/04/19 12:15:49;;;;;;;;;;;;;;;;;;5091059;28;1130;-71
2022/04/19 12:18:29;;;;;;;;;;;;;;;;;;5090747;28;684;-72
2022/04/19 12:20:55;;;;;;;;;;;;;;;;;;5090281;28;1288;-71
2022/04/19 12:23:21;;;;;;;;;;;;;;;;;;5090886;28;1008;-71
2022/04/19 12:25:59;;;;;;;;;;;;;;;;;;5090440;28;1497;-71
2022/04/19 12:28:34;;;;;;;;;;;;;;;;;;5090644;28;1921;-72
2022/04/19 12:31:00;;;;;;;;;;;;;;;;;;5090838;28;1294;-72
2022/04/19 12:33:26;;;;;;;;;;;;;;;;;;5090774;28;1048;-73
2022/04/19 12:35:53;;;;;;;;;;;;;;;;;;5091088;28;1086;-72
2022/04/19 12:38:20;;;;;;;;;;;;;;;;;;5093370;28;880;-71
2022/04/19 12:40:46;;;;;;;;;;;;;;;;;;5092479;28;1292;-72
2022/04/19 12:43:15;;;;;;;;;;;;;;;;;;5094542;28;1075;-71
2022/04/19 12:45:42;;;;;;;;;;;;;;;;;;5094726;28;814;-72
2022/04/19 12:48:17;;;;;;;;;;;;;;;;;;5092989;28;1987;-72
2022/04/19 12:50:43;;;;;;;;;;;;;;;;;;5094170;28;1376;-72
2022/04/19 12:53:20;;;;;;;;;;;;;;;;;;5094764;28;857;-71
2022/04/19 12:55:47;;;;;;;;;;;;;;;;;;5092537;28;1360;-72
2022/04/19 12:58:14;;;;;;;;;;;;;;;;;;5094026;28;794;-72
2022/04/19 13:00:40;;;;;;;;;;;;;;;;;;5093207;28;1368;-71
2022/04/19 13:03:07;;;;;;;;;;;;;;;;;;5094002;28;1115;-71
2022/04/19 13:13:42;;;;;;;;;;;;;;;;;;5092961;28;1008;-71
2022/04/19 13:16:08;;;;;;;;;;;;;;;;;;5094084;28;889;-71
2022/04/19 13:18:34;;;;;;;;;;;;;;;;;;5092772;28;1103;-71
2022/04/19 13:21:00;;;;;;;;;;;;;;;;;;5093791;28;1288;-73
2022/04/19 13:23:27;;;;;;;;;;;;;;;;;;5093859;28;1071;-72
2022/04/19 13:25:54;;;;;;;;;;;;;;;;;;5092397;28;1123;-72
2022/04/19 13:28:22;;;;;;;;;;;;;;;;;;5091831;28;2667;-71
2022/04/19 13:30:49;;;;;;;;;;;;;;;;;;5093834;28;1396;-71
2022/04/19 13:33:15;;;;;;;;;;;;;;;;;;5093432;28;1271;-72
2022/04/19 13:35:42;;;;;;;;;;;;;;;;;;5094315;28;951;-72
2022/04/19 13:38:26;;;;;;;;;;;;;;;;;;5092036;28;1162;-73
2022/04/19 13:40:53;;;;;;;;;;;;;;;;;;5093949;28;1362;-72
2022/04/19 13:43:19;;;;;;;;;;;;;;;;;;5093876;28;893;-72
2022/04/19 13:45:45;;;;;;;;;;;;;;;;;;5093712;28;1122;-72
2022/04/19 13:48:13;;;;;;;;;;;;;;;;;;5092816;28;1973;-73
2022/04/19 13:50:39;;;;;;;;;;;;;;;;;;5093155;28;1359;-72
2022/04/19 13:53:05;;;;;;;;;;;;;;;;;;5093672;28;821;-73
2022/04/19 13:55:31;;;;;;;;;;;;;;;;;;5094023;28;889;-73
2022/04/19 13:57:58;;;;;;;;;;;;;;;;;;5096783;28;1079;-72
2022/04/19 14:00:24;;;;;;;;;;;;;;;;;;5098975;28;1373;-72
2022/04/19 14:02:50;;;;;;;;;;;;;;;;;;5096241;28;1051;-71
2022/04/19 14:05:18;;;;;;;;;;;;;;;;;;5093382;28;1138;-72
2022/04/19 14:07:44;;;;;;;;;;;;;;;;;;5093001;28;1934;-73
2022/04/19 14:10:11;;;;;;;;;;;;;;;;;;5093303;28;1279;-74
2022/04/19 14:12:37;;;;;;;;;;;;;;;;;;5092933;28;806;-73
2022/04/19 14:15:04;;;;;;;;;;;;;;;;;;5091696;28;896;-73
2022/04/19 14:17:30;;;;;;;;;;;;;;;;;;5092789;28;1111;-73
2022/04/19 14:19:56;;;;;;;;;;;;;;;;;;5092942;28;1274;-72
2022/04/19 14:22:24;;;;;;;;;;;;;;;;;;5092692;28;877;-73
2022/04/19 14:24:50;;;;;;;;;;;;;;;;;;5092896;28;1063;-75
2022/04/19 14:27:16;;;;;;;;;;;;;;;;;;5092153;28;1981;-73
2022/04/19 14:35:03;;;;;;;;;;;;;;;;;;5080065;28;1123;-72
2022/04/19 14:37:31;;;;;;;;;;;;;;;;;;5092297;28;972;-72
2022/04/19 14:39:59;;;;;;;;;;;;;;;;;;5092643;28;1273;-72
2022/04/19 14:42:26;;;;;;;;;;;;;;;;;;5092429;28;879;-73
2022/04/19 14:44:52;;;;;;;;;;;;;;;;;;5091217;28;1182;-72
2022/04/19 14:47:18;;;;;;;;;;;;;;;;;;5092424;28;1914;-72
2022/04/19 14:49:44;;;;;;;;;;;;;;;;;;5092581;28;1227;-69
2022/04/19 14:52:18;;;;;;;;;;;;;;;;;;5092080;28;1103;-72
2022/04/19 14:54:46;;;;;;;;;;;;;;;;;;5092504;28;1079;-72
2022/04/19 14:57:12;;;;;;;;;;;;;;;;;;5090567;28;1325;-72
2022/04/19 14:59:38;;;;;;;;;;;;;;;;;;5092382;28;822;-72
2022/04/19 15:02:05;;;;;;;;;;;;;;;;;;5091172;28;1310;-73
2022/04/19 15:04:31;;;;;;;;;;;;;;;;;;5092009;28;948;-73
2022/04/19 15:06:57;;;;;;;;;;;;;;;;;;5091710;28;1138;-72
2022/04/19 15:09:23;;;;;;;;;;;;;;;;;;5091737;28;1914;-72
2022/04/19 15:11:51;;;;;;;;;;;;;;;;;;5091574;28;1294;-72
2022/04/19 15:14:19;;;;;;;;;;;;;;;;;;5091596;28;1935;-72
2022/04/19 15:16:45;;;;;;;;;;;;;;;;;;5091687;28;1067;-72
2022/04/19 15:19:11;;;;;;;;;;;;;;;;;;5092077;28;789;-72
2022/04/19 15:21:37;;;;;;;;;;;;;;;;;;5091674;28;1406;-72
2022/04/19 15:24:04;;;;;;;;;;;;;;;;;;5091757;28;1024;-71
2022/04/19 15:26:30;;;;;;;;;;;;;;;;;;5091863;28;798;-71
2022/04/19 15:28:57;;;;;;;;;;;;;;;;;;5090735;28;1984;-72
2022/04/19 15:31:24;;;;;;;;;;;;;;;;;;5092188;28;1383;-73
2022/04/19 15:33:50;;;;;;;;;;;;;;;;;;5090588;28;1282;-71
2022/04/19 15:36:16;;;;;;;;;;;;;;;;;;5090987;28;1580;-71
2022/04/19 15:38:43;;;;;;;;;;;;;;;;;;5091334;28;1623;-72
2022/04/19 15:41:09;;;;;;;;;;;;;;;;;;5089994;28;1336;-72
2022/04/19 15:43:35;;;;;;;;;;;;;;;;;;5089785;28;2023;-73
2022/04/19 15:46:03;;;;;;;;;;;;;;;;;;5089002;28;1232;-72
2022/04/19 15:48:31;;;;;;;;;;;;;;;;;;5091040;28;1981;-72
2022/04/19 15:50:58;;;;;;;;;;;;;;;;;;5108151;22;3585;-72
2022/04/19 15:53:24;;;;;;;;;;;;;;;;;;5079644;28;1994;-72
2022/04/19 15:55:50;;;;;;;;;;;;;;;;;;5089841;28;1156;-72
2022/04/19 15:58:16;;;;;;;;;;;;;;;;;;5090899;28;854;-71
2022/04/19 16:00:42;;;;;;;;;;;;;;;;;;5091419;28;786;-72
2022/04/19 16:03:10;;;;;;;;;;;;;;;;;;5091042;28;1351;-70
2022/04/19 16:05:36;;;;;;;;;;;;;;;;;;5090927;28;956;-70
2022/04/19 16:08:02;;;;;;;;;;;;;;;;;;5090595;28;1969;-68
2022/04/19 16:10:29;;;;;;;;;;;;;;;;;;5090983;28;912;-70
2022/04/19 16:12:57;;;;;;;;;;;;;;;;;;5093574;28;1348;-70
2022/04/19 16:15:24;;;;;;;;;;;;;;;;;;5095106;28;944;-72
2022/04/19 16:23:22;;;;;;;;;;;;;;;;;;5094963;28;790;-70
2022/04/19 16:25:50;;;;;;;;;;;;;;;;;;5094995;28;814;-70
2022/04/19 16:28:17;;;;;;;;;;;;;;;;;;5094458;28;1910;-70
2022/04/19 16:30:43;;;;;;;;;;;;;;;;;;5094647;28;1119;-70
2022/04/19 16:33:09;;;;;;;;;;;;;;;;;;5094602;28;1341;-70
2022/04/19 16:35:36;;;;;;;;;;;;;;;;;;5076411;28;1111;-71
2022/04/19 16:38:04;;;;;;;;;;;;;;;;;;5094560;28;1064;-68
2022/04/19 16:40:30;;;;;;;;;;;;;;;;;;5094980;28;843;-71
2022/04/19 16:42:56;;;;;;;;;;;;;;;;;;5094703;28;1300;-70
2022/04/19 16:45:22;;;;;;;;;;;;;;;;;;5094544;28;886;-71
2022/04/19 16:47:48;;;;;;;;;;;;;;;;;;5094426;28;1906;-71
2022/04/19 16:50:15;;;;;;;;;;;;;;;;;;5094401;28;1075;-71
2022/04/19 16:52:42;;;;;;;;;;;;;;;;;;5094445;28;1379;-72
2022/04/19 16:55:09;;;;;;;;;;;;;;;;;;5094421;28;1095;-72
2022/04/19 16:57:35;;;;;;;;;;;;;;;;;;5094304;28;838;-72
2022/04/19 17:00:02;;;;;;;;;;;;;;;;;;5093057;28;1672;-71
2022/04/19 17:02:30;;;;;;;;;;;;;;;;;;5068822;28;1342;-71
2022/04/19 17:04:56;;;;;;;;;;;;;;;;;;5054168;28;1171;-71
2022/04/19 17:07:23;;;;;;;;;;;;;;;;;;5080732;28;1519;-71
2022/04/19 17:09:50;;;;;;;;;;;;;;;;;;5092316;28;1922;-71
2022/04/19 17:12:16;;;;;;;;;;;;;;;;;;5091911;28;1570;-71
2022/04/19 17:14:42;;;;;;;;;;;;;;;;;;5092078;28;1530;-70
2022/04/19 17:17:09;;;;;;;;;;;;;;;;;;5091765;28;1558;-70
2022/04/19 17:19:35;;;;;;;;;;;;;;;;;;5092098;28;804;-70
2022/04/19 17:22:01;;;;;;;;;;;;;;;;;;5091731;28;1858;-70
2022/04/19 17:24:28;;;;;;;;;;;;;;;;;;5090443;28;1539;-71
2022/04/19 17:26:56;;;;;;;;;;;;;;;;;;5091648;28;1364;-71
2022/04/19 17:29:22;;;;;;;;;;;;;;;;;;5091472;28;1914;-71
2022/04/19 17:31:48;;;;;;;;;;;;;;;;;;5102816;28;1369;-71
2022/04/19 17:34:15;;;;;;;;;;;;;;;;;;5106308;28;1541;-71
2022/04/19 17:36:42;;;;;;;;;;;;;;;;;;5090925;28;1648;-72
2022/04/19 17:39:08;;;;;;;;;;;;;;;;;;5091221;28;1593;-71
2022/04/19 17:41:35;;;;;;;;;;;;;;;;;;5090791;28;1617;-72
2022/04/19 17:44:04;;;;;;;;;;;;;;;;;;5090989;28;1269;-71
2022/04/19 17:46:31;;;;;;;;;;;;;;;;;;5091016;28;1625;-71
2022/04/19 17:48:57;;;;;;;;;;;;;;;;;;5091356;28;1978;-71
2022/04/19 17:56:51;;;;;;;;;;;;;;;;;;5072350;28;1486;-72
2022/04/19 17:59:18;;;;;;;;;;;;;;;;;;5090812;28;1416;-71
2022/04/19 18:01:45;;;;;;;;;;;;;;;;;;5088825;28;1509;-72
2022/04/19 18:04:11;;;;;;;;;;;;;;;;;;5091115;28;1016;-71
2022/04/19 18:06:37;;;;;;;;;;;;;;;;;;5091083;28;1568;-71
2022/04/19 18:09:04;;;;;;;;;;;;;;;;;;5102002;28;1917;-71
2022/04/19 18:11:30;;;;;;;;;;;;;;;;;;5104527;28;1410;-71
2022/04/19 18:13:56;;;;;;;;;;;;;;;;;;5090584;28;1151;-71
2022/04/19 18:16:24;;;;;;;;;;;;;;;;;;5089373;28;1403;-72
2022/04/19 18:18:51;;;;;;;;;;;;;;;;;;5089784;28;1291;-71